Time;durP1;ratioP1;P1;durP2;ratioP2;P2;SDS_P1;SDS_P2;PMS_P1;PMS_P2;Temp;Humidity;BMP_temperature;BMP_pressure;BME280_temperature;BME280_humidity;BME280_pressure;Samples;Min_cycle;Max_cycle;Signal;HPM_P1;HPM_P2
2022/09/03 00:00:42;;;;;;;;;;;;;;;;;;5015799;28;19913;-27
2022/09/03 00:03:08;;;;;;;;;;;;;;;;;;5015217;28;19968;-27
2022/09/03 00:05:34;;;;;;;;;;;;;;;;;;5015493;28;19940;-27
2022/09/03 00:08:01;;;;;;;;;;;;;;;;;;5015460;28;19914;-27
2022/09/03 00:10:29;;;;;;;;;;;;;;;;;;5014974;28;20308;-26
2022/09/03 00:12:55;;;;;;;;;;;;;;;;;;5015263;28;19940;-26
2022/09/03 00:15:21;;;;;;;;;;;;;;;;;;5015613;28;19941;-27
2022/09/03 00:17:47;;;;;;;;;;;;;;;;;;5015282;28;19910;-27
2022/09/03 00:20:13;;;;;;;;;;;;;;;;;;5015563;28;19971;-27
2022/09/03 00:22:39;;;;;;;;;;;;;;;;;;5015241;28;20288;-27
2022/09/03 00:25:06;;;;;;;;;;;;;;;;;;5015564;28;19913;-27
2022/09/03 00:27:31;;;;;;;;;;;;;;;;;;5015833;28;20308;-27
2022/09/03 00:29:57;;;;;;;;;;;;;;;;;;5015224;28;19910;-27
2022/09/03 00:32:25;;;;;;;;;;;;;;;;;;5015379;28;20234;-27
2022/09/03 00:34:51;;;;;;;;;;;;;;;;;;5018786;28;19925;-27
2022/09/03 00:37:17;;;;;;;;;;;;;;;;;;5019174;28;19993;-27
2022/09/03 00:39:43;;;;;;;;;;;;;;;;;;5019115;28;19945;-26
2022/09/03 00:42:09;;;;;;;;;;;;;;;;;;5019008;28;19928;-27
2022/09/03 00:44:35;;;;;;;;;;;;;;;;;;5019435;28;20276;-27
2022/09/03 00:47:01;;;;;;;;;;;;;;;;;;5019576;28;19967;-27
2022/09/03 00:49:27;;;;;;;;;;;;;;;;;;5019069;28;19936;-27
2022/09/03 00:51:53;;;;;;;;;;;;;;;;;;5018903;28;19924;-27
2022/09/03 00:54:19;;;;;;;;;;;;;;;;;;5018932;28;20242;-27
2022/09/03 00:56:45;;;;;;;;;;;;;;;;;;5018884;28;19913;-27
2022/09/03 00:59:11;;;;;;;;;;;;;;;;;;5019425;28;20348;-27
2022/09/03 01:01:36;;;;;;;;;;;;;;;;;;5018762;28;20306;-27
2022/09/03 01:04:05;;;;;;;;;;;;;;;;;;5018512;28;19936;-27
2022/09/03 01:06:31;;;;;;;;;;;;;;;;;;5017756;28;20417;-27
2022/09/03 01:08:58;;;;;;;;;;;;;;;;;;5017736;28;20000;-26
2022/09/03 01:11:25;;;;;;;;;;;;;;;;;;5018619;28;19914;-27
2022/09/03 01:13:51;;;;;;;;;;;;;;;;;;5018776;28;19913;-26
2022/09/03 01:16:18;;;;;;;;;;;;;;;;;;5018776;28;19917;-27
2022/09/03 01:18:44;;;;;;;;;;;;;;;;;;5018793;28;20308;-26
2022/09/03 01:21:11;;;;;;;;;;;;;;;;;;5018693;28;20264;-27
2022/09/03 01:23:37;;;;;;;;;;;;;;;;;;5018292;28;19924;-27
2022/09/03 01:26:03;;;;;;;;;;;;;;;;;;5018373;28;19921;-27
2022/09/03 01:28:32;;;;;;;;;;;;;;;;;;5018341;28;19917;-27
2022/09/03 01:30:58;;;;;;;;;;;;;;;;;;5019053;28;19914;-27
2022/09/03 01:33:24;;;;;;;;;;;;;;;;;;5018153;28;19968;-27
2022/09/03 01:35:50;;;;;;;;;;;;;;;;;;5018436;28;19920;-27
2022/09/03 01:38:16;;;;;;;;;;;;;;;;;;5018352;28;19967;-27
2022/09/03 01:40:42;;;;;;;;;;;;;;;;;;5017930;28;20248;-27
2022/09/03 01:43:08;;;;;;;;;;;;;;;;;;5018530;28;19913;-27
2022/09/03 01:45:34;;;;;;;;;;;;;;;;;;5017853;28;19913;-27
2022/09/03 01:48:01;;;;;;;;;;;;;;;;;;5017899;28;19971;-27
2022/09/03 01:50:27;;;;;;;;;;;;;;;;;;5017897;28;19920;-27
2022/09/03 01:52:53;;;;;;;;;;;;;;;;;;5018044;28;19913;-27
2022/09/03 01:55:19;;;;;;;;;;;;;;;;;;5017814;28;20325;-27
2022/09/03 01:57:46;;;;;;;;;;;;;;;;;;5017768;28;19933;-27
2022/09/03 02:00:12;;;;;;;;;;;;;;;;;;5018025;28;20234;-27
2022/09/03 02:02:39;;;;;;;;;;;;;;;;;;5017549;28;19917;-27
2022/09/03 02:05:08;;;;;;;;;;;;;;;;;;5017938;28;19952;-26
2022/09/03 02:07:34;;;;;;;;;;;;;;;;;;5017618;28;19917;-27
2022/09/03 02:10:00;;;;;;;;;;;;;;;;;;5017483;28;20000;-27
2022/09/03 02:12:26;;;;;;;;;;;;;;;;;;5017353;28;19914;-27
2022/09/03 02:14:52;;;;;;;;;;;;;;;;;;5017918;28;19921;-27
2022/09/03 02:17:18;;;;;;;;;;;;;;;;;;5017450;28;20260;-27
2022/09/03 02:19:44;;;;;;;;;;;;;;;;;;5017913;28;19914;-27
2022/09/03 02:22:10;;;;;;;;;;;;;;;;;;5017694;28;19917;-27
2022/09/03 02:24:36;;;;;;;;;;;;;;;;;;5017536;28;20332;-27
2022/09/03 02:27:02;;;;;;;;;;;;;;;;;;5017476;28;20263;-28
2022/09/03 02:29:28;;;;;;;;;;;;;;;;;;5017896;28;19910;-27
2022/09/03 02:31:54;;;;;;;;;;;;;;;;;;5017040;28;19948;-27
2022/09/03 02:34:20;;;;;;;;;;;;;;;;;;5017090;28;19913;-27
2022/09/03 02:36:46;;;;;;;;;;;;;;;;;;5016965;28;20008;-27
2022/09/03 02:39:12;;;;;;;;;;;;;;;;;;5016956;28;19941;-27
2022/09/03 02:41:38;;;;;;;;;;;;;;;;;;5016847;28;19960;-27
2022/09/03 02:44:04;;;;;;;;;;;;;;;;;;5017413;28;19914;-27
2022/09/03 02:46:30;;;;;;;;;;;;;;;;;;5017412;28;19921;-27
2022/09/03 02:48:56;;;;;;;;;;;;;;;;;;5016840;28;20012;-27
2022/09/03 02:51:22;;;;;;;;;;;;;;;;;;5017556;28;19913;-27
2022/09/03 02:53:48;;;;;;;;;;;;;;;;;;5016708;28;19909;-27
2022/09/03 02:56:14;;;;;;;;;;;;;;;;;;5016439;28;19913;-27
2022/09/03 02:58:40;;;;;;;;;;;;;;;;;;5016870;28;20230;-26
2022/09/03 03:01:06;;;;;;;;;;;;;;;;;;5016503;28;19917;-27
2022/09/03 03:03:33;;;;;;;;;;;;;;;;;;5016247;28;19922;-27
2022/09/03 03:05:59;;;;;;;;;;;;;;;;;;5016452;28;19924;-27
2022/09/03 03:08:26;;;;;;;;;;;;;;;;;;5016506;28;19909;-27
2022/09/03 03:10:52;;;;;;;;;;;;;;;;;;5017009;28;20302;-27
2022/09/03 03:13:18;;;;;;;;;;;;;;;;;;5016296;28;19913;-27
2022/09/03 03:15:46;;;;;;;;;;;;;;;;;;5016921;28;20299;-27
2022/09/03 03:18:12;;;;;;;;;;;;;;;;;;5016527;28;19952;-27
2022/09/03 03:20:39;;;;;;;;;;;;;;;;;;5016156;28;20404;-27
2022/09/03 03:23:05;;;;;;;;;;;;;;;;;;5016059;28;19992;-27
2022/09/03 03:25:31;;;;;;;;;;;;;;;;;;5015305;28;20321;-27
2022/09/03 03:27:57;;;;;;;;;;;;;;;;;;5016654;28;19913;-27
2022/09/03 03:30:23;;;;;;;;;;;;;;;;;;5016095;28;19936;-27
2022/09/03 03:32:49;;;;;;;;;;;;;;;;;;5016202;28;19976;-26
2022/09/03 03:35:15;;;;;;;;;;;;;;;;;;5015991;28;19983;-26
2022/09/03 03:37:41;;;;;;;;;;;;;;;;;;5015939;28;20012;-26
2022/09/03 03:40:07;;;;;;;;;;;;;;;;;;5015885;28;19972;-27
2022/09/03 03:42:33;;;;;;;;;;;;;;;;;;5015777;28;19956;-27
2022/09/03 03:45:01;;;;;;;;;;;;;;;;;;5015787;28;19913;-27
2022/09/03 03:47:27;;;;;;;;;;;;;;;;;;5015980;28;19920;-27
2022/09/03 03:49:53;;;;;;;;;;;;;;;;;;5015723;28;19913;-27
2022/09/03 03:52:19;;;;;;;;;;;;;;;;;;5015613;28;19920;-27
2022/09/03 03:54:45;;;;;;;;;;;;;;;;;;5015647;28;20325;-27
2022/09/03 03:57:11;;;;;;;;;;;;;;;;;;5015621;28;20006;-27
2022/09/03 03:59:37;;;;;;;;;;;;;;;;;;5015901;28;19917;-27
2022/09/03 04:02:03;;;;;;;;;;;;;;;;;;5015374;28;19917;-27
2022/09/03 04:04:29;;;;;;;;;;;;;;;;;;5015236;28;19922;-27
2022/09/03 04:06:55;;;;;;;;;;;;;;;;;;5015723;28;19941;-27
2022/09/03 04:09:21;;;;;;;;;;;;;;;;;;5015443;28;19945;-27
2022/09/03 04:11:49;;;;;;;;;;;;;;;;;;5015159;28;20333;-27
2022/09/03 04:14:16;;;;;;;;;;;;;;;;;;5015633;28;20266;-27
2022/09/03 04:16:45;;;;;;;;;;;;;;;;;;5015487;28;19972;-27
2022/09/03 04:19:11;;;;;;;;;;;;;;;;;;5015306;28;20237;-27
2022/09/03 04:21:37;;;;;;;;;;;;;;;;;;5015185;28;20292;-27
2022/09/03 04:24:03;;;;;;;;;;;;;;;;;;5015435;28;19910;-27
2022/09/03 04:26:32;;;;;;;;;;;;;;;;;;5015468;28;19913;-28
2022/09/03 04:28:59;;;;;;;;;;;;;;;;;;5015232;28;19929;-27
2022/09/03 04:31:25;;;;;;;;;;;;;;;;;;5015134;28;19920;-27
2022/09/03 04:33:51;;;;;;;;;;;;;;;;;;5015122;28;19913;-27
2022/09/03 04:36:17;;;;;;;;;;;;;;;;;;5015082;28;19924;-27
2022/09/03 04:38:43;;;;;;;;;;;;;;;;;;5014975;28;19996;-27
2022/09/03 04:41:09;;;;;;;;;;;;;;;;;;5014972;28;19976;-27
2022/09/03 04:43:35;;;;;;;;;;;;;;;;;;5014986;28;19913;-27
2022/09/03 04:46:01;;;;;;;;;;;;;;;;;;5015287;28;19940;-27
2022/09/03 04:48:28;;;;;;;;;;;;;;;;;;5014949;28;20336;-27
2022/09/03 04:50:54;;;;;;;;;;;;;;;;;;5016029;28;19940;-27
2022/09/03 04:53:20;;;;;;;;;;;;;;;;;;5014932;28;19910;-27
2022/09/03 04:55:46;;;;;;;;;;;;;;;;;;5014945;28;19925;-27
2022/09/03 04:58:12;;;;;;;;;;;;;;;;;;5014923;28;19924;-27
2022/09/03 05:00:37;;;;;;;;;;;;;;;;;;5014852;28;19910;-26
2022/09/03 05:03:04;;;;;;;;;;;;;;;;;;5014566;28;19993;-27
2022/09/03 05:05:30;;;;;;;;;;;;;;;;;;5015188;28;19940;-26
2022/09/03 05:07:56;;;;;;;;;;;;;;;;;;5014735;28;19914;-27
2022/09/03 05:10:22;;;;;;;;;;;;;;;;;;5015096;28;19918;-27
2022/09/03 05:12:49;;;;;;;;;;;;;;;;;;5015069;28;19923;-27
2022/09/03 05:15:14;;;;;;;;;;;;;;;;;;5015124;28;20399;-27
2022/09/03 05:17:41;;;;;;;;;;;;;;;;;;5014770;28;20004;-27
2022/09/03 05:20:07;;;;;;;;;;;;;;;;;;5017004;28;19937;-27
2022/09/03 05:22:33;;;;;;;;;;;;;;;;;;5018340;28;20310;-27
2022/09/03 05:24:59;;;;;;;;;;;;;;;;;;5018349;28;19917;-27
2022/09/03 05:27:25;;;;;;;;;;;;;;;;;;5018776;28;19972;-27
2022/09/03 05:29:51;;;;;;;;;;;;;;;;;;5018313;28;19920;-27
2022/09/03 05:32:17;;;;;;;;;;;;;;;;;;5018046;28;20027;-27
2022/09/03 05:34:43;;;;;;;;;;;;;;;;;;5018182;28;19989;-27
2022/09/03 05:37:11;;;;;;;;;;;;;;;;;;5018395;28;19963;-27
2022/09/03 05:39:37;;;;;;;;;;;;;;;;;;5018132;28;19913;-27
2022/09/03 05:42:03;;;;;;;;;;;;;;;;;;5018383;28;19918;-27
2022/09/03 05:44:30;;;;;;;;;;;;;;;;;;5018073;28;19971;-27
2022/09/03 05:46:56;;;;;;;;;;;;;;;;;;5017873;28;19921;-27
2022/09/03 05:49:22;;;;;;;;;;;;;;;;;;5017804;28;19910;-27
2022/09/03 05:51:48;;;;;;;;;;;;;;;;;;5017798;28;19916;-27
2022/09/03 05:54:14;;;;;;;;;;;;;;;;;;5017824;28;19965;-27
2022/09/03 05:56:41;;;;;;;;;;;;;;;;;;5018333;28;19910;-27
2022/09/03 05:59:08;;;;;;;;;;;;;;;;;;5018105;28;19914;-27
2022/09/03 06:01:34;;;;;;;;;;;;;;;;;;5017648;28;20337;-27
2022/09/03 06:04:00;;;;;;;;;;;;;;;;;;5017393;28;19921;-27
2022/09/03 06:06:26;;;;;;;;;;;;;;;;;;5017805;28;20014;-27
2022/09/03 06:08:52;;;;;;;;;;;;;;;;;;5017563;28;19949;-27
2022/09/03 06:11:18;;;;;;;;;;;;;;;;;;5017446;28;19957;-28
2022/09/03 06:13:44;;;;;;;;;;;;;;;;;;5017693;28;20209;-27
2022/09/03 06:16:10;;;;;;;;;;;;;;;;;;5017432;28;19913;-27
2022/09/03 06:18:36;;;;;;;;;;;;;;;;;;5017719;28;20000;-27
2022/09/03 06:21:02;;;;;;;;;;;;;;;;;;5017257;28;19929;-28
2022/09/03 06:23:28;;;;;;;;;;;;;;;;;;5017494;28;19909;-27
2022/09/03 06:25:54;;;;;;;;;;;;;;;;;;5017309;28;19956;-27
2022/09/03 06:28:21;;;;;;;;;;;;;;;;;;5017574;28;20329;-27
2022/09/03 06:30:47;;;;;;;;;;;;;;;;;;5016278;28;19924;-27
2022/09/03 06:33:13;;;;;;;;;;;;;;;;;;5017231;28;19913;-27
2022/09/03 06:35:40;;;;;;;;;;;;;;;;;;5017175;28;20340;-27
2022/09/03 06:38:06;;;;;;;;;;;;;;;;;;5017001;28;20349;-27
2022/09/03 06:40:32;;;;;;;;;;;;;;;;;;5017048;28;19968;-27
2022/09/03 06:43:00;;;;;;;;;;;;;;;;;;5017042;28;20260;-27
2022/09/03 06:45:27;;;;;;;;;;;;;;;;;;5016867;28;19940;-27
2022/09/03 06:47:53;;;;;;;;;;;;;;;;;;5017057;28;19913;-27
2022/09/03 06:50:19;;;;;;;;;;;;;;;;;;5017077;28;20340;-27
2022/09/03 06:52:46;;;;;;;;;;;;;;;;;;5017041;28;19917;-27
2022/09/03 06:55:12;;;;;;;;;;;;;;;;;;5016697;28;19924;-27
2022/09/03 06:57:38;;;;;;;;;;;;;;;;;;5016624;28;19910;-27
2022/09/03 07:00:04;;;;;;;;;;;;;;;;;;5016634;28;19910;-27
2022/09/03 07:02:30;;;;;;;;;;;;;;;;;;5016246;28;19918;-27
2022/09/03 07:04:56;;;;;;;;;;;;;;;;;;5016512;28;19916;-27
2022/09/03 07:07:22;;;;;;;;;;;;;;;;;;5016822;28;19913;-27
2022/09/03 07:09:48;;;;;;;;;;;;;;;;;;5016456;28;19988;-27
2022/09/03 07:12:17;;;;;;;;;;;;;;;;;;5016255;28;19941;-27
2022/09/03 07:14:43;;;;;;;;;;;;;;;;;;5016637;28;19960;-27
2022/09/03 07:17:09;;;;;;;;;;;;;;;;;;5016585;28;19914;-27
2022/09/03 07:19:35;;;;;;;;;;;;;;;;;;5016310;28;19910;-27
2022/09/03 07:22:01;;;;;;;;;;;;;;;;;;5016311;28;20004;-27
2022/09/03 07:24:28;;;;;;;;;;;;;;;;;;5016231;28;19909;-27
2022/09/03 07:26:53;;;;;;;;;;;;;;;;;;5016382;28;19909;-26
2022/09/03 07:29:20;;;;;;;;;;;;;;;;;;5016061;28;20377;-27
2022/09/03 07:31:46;;;;;;;;;;;;;;;;;;5015889;28;19909;-27
2022/09/03 07:34:12;;;;;;;;;;;;;;;;;;5016216;28;20004;-27
2022/09/03 07:36:38;;;;;;;;;;;;;;;;;;5015910;28;20404;-26
2022/09/03 07:39:04;;;;;;;;;;;;;;;;;;5015870;28;19917;-27
2022/09/03 07:41:34;;;;;;;;;;;;;;;;;;5016053;28;19917;-26
2022/09/03 07:44:04;;;;;;;;;;;;;;;;;;5015604;28;19916;-26
2022/09/03 07:46:30;;;;;;;;;;;;;;;;;;5015979;28;19923;-27
2022/09/03 07:48:56;;;;;;;;;;;;;;;;;;5015867;28;19914;-27
2022/09/03 07:51:25;;;;;;;;;;;;;;;;;;5016229;28;19929;-27
2022/09/03 07:53:51;;;;;;;;;;;;;;;;;;5015520;28;19983;-26
2022/09/03 07:56:17;;;;;;;;;;;;;;;;;;5015657;28;19960;-27
2022/09/03 07:58:43;;;;;;;;;;;;;;;;;;5015618;28;19913;-27
2022/09/03 08:01:09;;;;;;;;;;;;;;;;;;5016090;28;20298;-27
2022/09/03 08:03:35;;;;;;;;;;;;;;;;;;5015788;28;19925;-27
2022/09/03 08:06:02;;;;;;;;;;;;;;;;;;5015848;28;19995;-27
2022/09/03 08:08:28;;;;;;;;;;;;;;;;;;5015806;28;19914;-27
2022/09/03 08:10:54;;;;;;;;;;;;;;;;;;5015752;28;20008;-27
2022/09/03 08:13:20;;;;;;;;;;;;;;;;;;5015296;28;19909;-27
2022/09/03 08:15:46;;;;;;;;;;;;;;;;;;5015349;28;20023;-27
2022/09/03 08:18:12;;;;;;;;;;;;;;;;;;5014355;28;19929;-27
2022/09/03 08:20:38;;;;;;;;;;;;;;;;;;5015378;28;19920;-27
2022/09/03 08:23:04;;;;;;;;;;;;;;;;;;5015529;28;19940;-27
2022/09/03 08:25:30;;;;;;;;;;;;;;;;;;5015593;28;19913;-27
2022/09/03 08:27:56;;;;;;;;;;;;;;;;;;5015539;28;19910;-27
2022/09/03 08:30:24;;;;;;;;;;;;;;;;;;5015261;28;20340;-27
2022/09/03 08:32:50;;;;;;;;;;;;;;;;;;5015473;28;19910;-27
2022/09/03 08:35:16;;;;;;;;;;;;;;;;;;5015160;28;20302;-27
2022/09/03 08:37:42;;;;;;;;;;;;;;;;;;5015793;28;19914;-27
2022/09/03 08:40:08;;;;;;;;;;;;;;;;;;5015181;28;19975;-27
2022/09/03 08:42:35;;;;;;;;;;;;;;;;;;5015037;28;19917;-27
2022/09/03 08:45:01;;;;;;;;;;;;;;;;;;5015452;28;19941;-27
2022/09/03 08:47:27;;;;;;;;;;;;;;;;;;5015703;28;19913;-27
2022/09/03 08:49:54;;;;;;;;;;;;;;;;;;5015121;28;19920;-27
2022/09/03 08:52:20;;;;;;;;;;;;;;;;;;5015008;28;20352;-27
2022/09/03 08:54:46;;;;;;;;;;;;;;;;;;5016865;28;19921;-26
2022/09/03 08:57:13;;;;;;;;;;;;;;;;;;5019254;28;19918;-27
2022/09/03 08:59:39;;;;;;;;;;;;;;;;;;5018992;28;20337;-27
2022/09/03 09:02:05;;;;;;;;;;;;;;;;;;5019638;28;19928;-27
2022/09/03 09:04:33;;;;;;;;;;;;;;;;;;5018675;28;19976;-27
2022/09/03 09:06:59;;;;;;;;;;;;;;;;;;5019608;28;19984;-27
2022/09/03 09:09:26;;;;;;;;;;;;;;;;;;5018723;28;20006;-27
2022/09/03 09:11:52;;;;;;;;;;;;;;;;;;5018700;28;19920;-27
2022/09/03 09:14:18;;;;;;;;;;;;;;;;;;5018690;28;19918;-27
2022/09/03 09:16:44;;;;;;;;;;;;;;;;;;5018905;28;19939;-27
2022/09/03 09:19:10;;;;;;;;;;;;;;;;;;5018602;28;20345;-27
2022/09/03 09:21:45;;;;;;;;;;;;;;;;;;5018489;28;19917;-27
2022/09/03 09:24:11;;;;;;;;;;;;;;;;;;5018503;28;19910;-27
2022/09/03 09:26:36;;;;;;;;;;;;;;;;;;5018748;28;19924;-27
2022/09/03 09:29:03;;;;;;;;;;;;;;;;;;5019216;28;19910;-27
2022/09/03 09:31:29;;;;;;;;;;;;;;;;;;5018370;28;19924;-27
2022/09/03 09:33:55;;;;;;;;;;;;;;;;;;5018501;28;19951;-27
2022/09/03 09:36:22;;;;;;;;;;;;;;;;;;5018375;28;20352;-28
2022/09/03 09:38:48;;;;;;;;;;;;;;;;;;5018072;28;19944;-27
2022/09/03 09:41:14;;;;;;;;;;;;;;;;;;5018055;28;19913;-27
2022/09/03 09:43:40;;;;;;;;;;;;;;;;;;5018816;28;19914;-27
2022/09/03 09:46:07;;;;;;;;;;;;;;;;;;5018336;28;20000;-27
2022/09/03 09:48:33;;;;;;;;;;;;;;;;;;5018011;28;20009;-27
2022/09/03 09:50:59;;;;;;;;;;;;;;;;;;5017921;28;19921;-27
2022/09/03 09:53:25;;;;;;;;;;;;;;;;;;5018120;28;19925;-27
2022/09/03 09:55:51;;;;;;;;;;;;;;;;;;5017941;28;20380;-27
2022/09/03 09:58:18;;;;;;;;;;;;;;;;;;5017862;28;19963;-27
2022/09/03 10:00:44;;;;;;;;;;;;;;;;;;5017748;28;19909;-27
2022/09/03 10:03:12;;;;;;;;;;;;;;;;;;5017758;28;19932;-27
2022/09/03 10:05:39;;;;;;;;;;;;;;;;;;5016435;28;20008;-27
2022/09/03 10:08:05;;;;;;;;;;;;;;;;;;5017881;28;19922;-27
2022/09/03 10:10:36;;;;;;;;;;;;;;;;;;5017868;28;19944;-27
2022/09/03 10:13:02;;;;;;;;;;;;;;;;;;5017483;28;19925;-27
2022/09/03 10:15:28;;;;;;;;;;;;;;;;;;5017587;28;19920;-27
2022/09/03 10:17:54;;;;;;;;;;;;;;;;;;5017476;28;19914;-27
2022/09/03 10:20:26;;;;;;;;;;;;;;;;;;5017550;28;19913;-27
2022/09/03 10:22:52;;;;;;;;;;;;;;;;;;5017613;28;19922;-26
2022/09/03 10:25:18;;;;;;;;;;;;;;;;;;5017686;28;19913;-27
2022/09/03 10:27:45;;;;;;;;;;;;;;;;;;5017266;28;19974;-27
2022/09/03 10:30:11;;;;;;;;;;;;;;;;;;5017137;28;19913;-27
2022/09/03 10:32:37;;;;;;;;;;;;;;;;;;5017163;28;19967;-27
2022/09/03 10:35:03;;;;;;;;;;;;;;;;;;5017414;28;19913;-28
2022/09/03 10:37:29;;;;;;;;;;;;;;;;;;5017405;28;19909;-27
2022/09/03 10:39:55;;;;;;;;;;;;;;;;;;5017645;28;20236;-27
2022/09/03 10:42:21;;;;;;;;;;;;;;;;;;5017120;28;19918;-26
2022/09/03 10:44:47;;;;;;;;;;;;;;;;;;5017689;28;19996;-27
2022/09/03 10:47:13;;;;;;;;;;;;;;;;;;5017019;28;19913;-27
2022/09/03 10:49:39;;;;;;;;;;;;;;;;;;5016825;28;19998;-27
2022/09/03 10:52:05;;;;;;;;;;;;;;;;;;5016753;28;20449;-27
2022/09/03 10:54:31;;;;;;;;;;;;;;;;;;5016766;28;19910;-27
2022/09/03 10:56:57;;;;;;;;;;;;;;;;;;5017534;28;19984;-27
2022/09/03 10:59:23;;;;;;;;;;;;;;;;;;5016714;28;19909;-27
2022/09/03 11:01:49;;;;;;;;;;;;;;;;;;5016553;28;19965;-27
2022/09/03 11:04:15;;;;;;;;;;;;;;;;;;5016440;28;19922;-27
2022/09/03 11:06:41;;;;;;;;;;;;;;;;;;5016869;28;20348;-27
2022/09/03 11:09:07;;;;;;;;;;;;;;;;;;5017207;28;19910;-27
2022/09/03 11:11:33;;;;;;;;;;;;;;;;;;5016785;28;19985;-27
2022/09/03 11:13:59;;;;;;;;;;;;;;;;;;5016461;28;20336;-27
2022/09/03 11:16:25;;;;;;;;;;;;;;;;;;5016845;28;20320;-27
2022/09/03 11:18:51;;;;;;;;;;;;;;;;;;5016430;28;20242;-27
2022/09/03 11:21:17;;;;;;;;;;;;;;;;;;5016549;28;20268;-27
2022/09/03 11:23:44;;;;;;;;;;;;;;;;;;5016365;28;19916;-27
2022/09/03 11:26:11;;;;;;;;;;;;;;;;;;5016844;28;19913;-27
2022/09/03 11:28:37;;;;;;;;;;;;;;;;;;5016571;28;19909;-27
2022/09/03 11:31:03;;;;;;;;;;;;;;;;;;5016176;28;19968;-27
2022/09/03 11:33:29;;;;;;;;;;;;;;;;;;5016340;28;19909;-27
2022/09/03 11:35:55;;;;;;;;;;;;;;;;;;5016433;28;20329;-27
2022/09/03 11:38:26;;;;;;;;;;;;;;;;;;5016036;28;20348;-27
2022/09/03 11:40:52;;;;;;;;;;;;;;;;;;5016559;28;19924;-27
2022/09/03 11:43:18;;;;;;;;;;;;;;;;;;5014989;28;20008;-27
2022/09/03 11:45:44;;;;;;;;;;;;;;;;;;5016023;28;19963;-27
2022/09/03 11:48:10;;;;;;;;;;;;;;;;;;5015860;28;20348;-27
2022/09/03 11:50:36;;;;;;;;;;;;;;;;;;5016180;28;19964;-27
2022/09/03 11:53:02;;;;;;;;;;;;;;;;;;5015808;28;19917;-27
2022/09/03 11:55:32;;;;;;;;;;;;;;;;;;5015804;28;20009;-27
2022/09/03 11:57:58;;;;;;;;;;;;;;;;;;5015793;28;19920;-27
2022/09/03 12:00:25;;;;;;;;;;;;;;;;;;5015832;28;20420;-27
2022/09/03 12:02:51;;;;;;;;;;;;;;;;;;5015371;28;19996;-27
2022/09/03 12:05:18;;;;;;;;;;;;;;;;;;5015698;28;19952;-28
2022/09/03 12:07:44;;;;;;;;;;;;;;;;;;5015600;28;19913;-27
2022/09/03 12:10:10;;;;;;;;;;;;;;;;;;5015936;28;20051;-27
2022/09/03 12:12:36;;;;;;;;;;;;;;;;;;5015532;28;20386;-27
2022/09/03 12:15:02;;;;;;;;;;;;;;;;;;5016643;28;19913;-27
2022/09/03 12:17:28;;;;;;;;;;;;;;;;;;5015576;28;20332;-27
2022/09/03 12:19:54;;;;;;;;;;;;;;;;;;5015797;28;19909;-27
2022/09/03 12:22:20;;;;;;;;;;;;;;;;;;5015595;28;19918;-27
2022/09/03 12:24:46;;;;;;;;;;;;;;;;;;5016266;28;19971;-27
2022/09/03 12:27:12;;;;;;;;;;;;;;;;;;5016229;28;19914;-27
2022/09/03 12:29:39;;;;;;;;;;;;;;;;;;5014627;28;19909;-27
2022/09/03 12:32:05;;;;;;;;;;;;;;;;;;5015245;28;20001;-27
2022/09/03 12:34:31;;;;;;;;;;;;;;;;;;5015387;28;19924;-27
2022/09/03 12:36:57;;;;;;;;;;;;;;;;;;5015868;28;19963;-27
2022/09/03 12:39:23;;;;;;;;;;;;;;;;;;5015602;28;19914;-27
2022/09/03 12:41:49;;;;;;;;;;;;;;;;;;5015384;28;19924;-27
2022/09/03 12:44:15;;;;;;;;;;;;;;;;;;5015306;28;19909;-27
2022/09/03 12:46:41;;;;;;;;;;;;;;;;;;5015247;28;19920;-27
2022/09/03 12:49:07;;;;;;;;;;;;;;;;;;5015246;28;20000;-27
2022/09/03 12:51:33;;;;;;;;;;;;;;;;;;5015448;28;19921;-27
2022/09/03 12:54:00;;;;;;;;;;;;;;;;;;5015041;28;19940;-27
2022/09/03 12:56:27;;;;;;;;;;;;;;;;;;5015091;28;19909;-27
2022/09/03 12:58:54;;;;;;;;;;;;;;;;;;5015754;28;20283;-27
2022/09/03 13:01:20;;;;;;;;;;;;;;;;;;5015288;28;19921;-27
2022/09/03 13:03:46;;;;;;;;;;;;;;;;;;5014784;28;19956;-27
2022/09/03 13:06:12;;;;;;;;;;;;;;;;;;5015044;28;19913;-27
2022/09/03 13:08:38;;;;;;;;;;;;;;;;;;5015041;28;19913;-27
2022/09/03 13:11:04;;;;;;;;;;;;;;;;;;5015266;28;19925;-27
2022/09/03 13:13:30;;;;;;;;;;;;;;;;;;5015205;28;19909;-27
2022/09/03 13:15:56;;;;;;;;;;;;;;;;;;5015256;28;20250;-27
2022/09/03 13:18:22;;;;;;;;;;;;;;;;;;5015207;28;19917;-27
2022/09/03 13:20:48;;;;;;;;;;;;;;;;;;5014878;28;19909;-27
2022/09/03 13:23:14;;;;;;;;;;;;;;;;;;5015045;28;19933;-27
2022/09/03 13:25:40;;;;;;;;;;;;;;;;;;5014914;28;19925;-27
2022/09/03 13:28:06;;;;;;;;;;;;;;;;;;5014865;28;19913;-27
2022/09/03 13:30:32;;;;;;;;;;;;;;;;;;5015138;28;19913;-27
2022/09/03 13:32:59;;;;;;;;;;;;;;;;;;5015040;28;19914;-27
2022/09/03 13:35:25;;;;;;;;;;;;;;;;;;5014762;28;20341;-27
2022/09/03 13:37:52;;;;;;;;;;;;;;;;;;5015281;28;19980;-27
2022/09/03 13:40:18;;;;;;;;;;;;;;;;;;5015946;28;20238;-27
2022/09/03 13:42:44;;;;;;;;;;;;;;;;;;5018095;28;19918;-27
2022/09/03 13:45:10;;;;;;;;;;;;;;;;;;5018216;28;20291;-27
2022/09/03 13:47:36;;;;;;;;;;;;;;;;;;5018171;28;19967;-28
2022/09/03 13:50:25;;;;;;;;;;;;;;;;;;5018058;28;20357;-27
2022/09/03 13:52:52;;;;;;;;;;;;;;;;;;5018015;28;20368;-27
2022/09/03 13:55:18;;;;;;;;;;;;;;;;;;5018308;28;19992;-27
2022/09/03 13:57:44;;;;;;;;;;;;;;;;;;5017955;28;19949;-27
2022/09/03 14:00:10;;;;;;;;;;;;;;;;;;5018522;28;19909;-27
2022/09/03 14:02:36;;;;;;;;;;;;;;;;;;5017789;28;20007;-27
2022/09/03 14:05:02;;;;;;;;;;;;;;;;;;5018150;28;19952;-27
2022/09/03 14:07:28;;;;;;;;;;;;;;;;;;5017800;28;20268;-27
2022/09/03 14:09:54;;;;;;;;;;;;;;;;;;5017718;28;19920;-27
2022/09/03 14:12:20;;;;;;;;;;;;;;;;;;5017649;28;19913;-27
2022/09/03 14:14:46;;;;;;;;;;;;;;;;;;5017702;28;19917;-27
2022/09/03 14:17:12;;;;;;;;;;;;;;;;;;5017622;28;19917;-27
2022/09/03 14:19:38;;;;;;;;;;;;;;;;;;5017826;28;19910;-27
2022/09/03 14:22:04;;;;;;;;;;;;;;;;;;5017360;28;19924;-27
2022/09/03 14:24:30;;;;;;;;;;;;;;;;;;5017520;28;20388;-27
2022/09/03 14:26:56;;;;;;;;;;;;;;;;;;5017449;28;19910;-27
2022/09/03 14:29:22;;;;;;;;;;;;;;;;;;5017402;28;19928;-27
2022/09/03 14:31:51;;;;;;;;;;;;;;;;;;5016293;28;20004;-27
2022/09/03 14:34:17;;;;;;;;;;;;;;;;;;5017243;28;19909;-27
2022/09/03 14:36:42;;;;;;;;;;;;;;;;;;5017208;28;19936;-27
2022/09/03 14:39:09;;;;;;;;;;;;;;;;;;5017475;28;19910;-27
2022/09/03 14:41:34;;;;;;;;;;;;;;;;;;5017353;28;19917;-27
2022/09/03 14:44:01;;;;;;;;;;;;;;;;;;5017289;28;19909;-27
2022/09/03 14:46:27;;;;;;;;;;;;;;;;;;5017414;28;20288;-27
2022/09/03 14:48:53;;;;;;;;;;;;;;;;;;5017585;28;19968;-27
2022/09/03 14:51:19;;;;;;;;;;;;;;;;;;5016627;28;20036;-27
2022/09/03 14:53:45;;;;;;;;;;;;;;;;;;5016433;28;19961;-27
2022/09/03 14:56:11;;;;;;;;;;;;;;;;;;5016868;28;19940;-27
2022/09/03 14:58:37;;;;;;;;;;;;;;;;;;5016809;28;19909;-27
2022/09/03 15:01:04;;;;;;;;;;;;;;;;;;5016713;28;19913;-27
2022/09/03 15:03:30;;;;;;;;;;;;;;;;;;5016594;28;19922;-27
2022/09/03 15:05:55;;;;;;;;;;;;;;;;;;5017223;28;19914;-27
2022/09/03 15:08:22;;;;;;;;;;;;;;;;;;5016642;28;20398;-27
2022/09/03 15:10:48;;;;;;;;;;;;;;;;;;5017447;28;19914;-27
2022/09/03 15:13:14;;;;;;;;;;;;;;;;;;5016463;28;19914;-27
2022/09/03 15:15:40;;;;;;;;;;;;;;;;;;5016778;28;19916;-27
2022/09/03 15:18:06;;;;;;;;;;;;;;;;;;5016476;28;19913;-27
2022/09/03 15:20:34;;;;;;;;;;;;;;;;;;5017008;28;19940;-27
2022/09/03 15:23:00;;;;;;;;;;;;;;;;;;5016237;28;19918;-27
2022/09/03 15:25:26;;;;;;;;;;;;;;;;;;5016353;28;20016;-27
2022/09/03 15:27:52;;;;;;;;;;;;;;;;;;5016345;28;20340;-27
2022/09/03 15:30:19;;;;;;;;;;;;;;;;;;5016846;28;19976;-27
2022/09/03 15:32:45;;;;;;;;;;;;;;;;;;5016421;28;19932;-27
2022/09/03 15:35:11;;;;;;;;;;;;;;;;;;5016143;28;19913;-28
2022/09/03 15:37:37;;;;;;;;;;;;;;;;;;5016122;28;20038;-27
2022/09/03 15:40:03;;;;;;;;;;;;;;;;;;5016120;28;19914;-27
2022/09/03 15:42:29;;;;;;;;;;;;;;;;;;5015987;28;20000;-27
2022/09/03 15:44:55;;;;;;;;;;;;;;;;;;5016628;28;19917;-27
2022/09/03 15:47:21;;;;;;;;;;;;;;;;;;5015969;28;19950;-27
2022/09/03 15:49:47;;;;;;;;;;;;;;;;;;5015993;28;20000;-27
2022/09/03 15:52:13;;;;;;;;;;;;;;;;;;5016117;28;19968;-27
2022/09/03 15:54:41;;;;;;;;;;;;;;;;;;5016196;28;19983;-27
2022/09/03 15:57:07;;;;;;;;;;;;;;;;;;5015791;28;19913;-27
2022/09/03 15:59:33;;;;;;;;;;;;;;;;;;5015791;28;19941;-27
2022/09/03 16:02:00;;;;;;;;;;;;;;;;;;5015639;28;19960;-27
2022/09/03 16:04:26;;;;;;;;;;;;;;;;;;5015552;28;19921;-27
2022/09/03 16:06:52;;;;;;;;;;;;;;;;;;5015685;28;19960;-27
2022/09/03 16:09:18;;;;;;;;;;;;;;;;;;5015908;28;19921;-27
2022/09/03 16:11:44;;;;;;;;;;;;;;;;;;5015632;28;20364;-27
2022/09/03 16:14:10;;;;;;;;;;;;;;;;;;5016356;28;19913;-27
2022/09/03 16:16:41;;;;;;;;;;;;;;;;;;5015531;28;19913;-27
2022/09/03 16:19:08;;;;;;;;;;;;;;;;;;5015501;28;20000;-27
2022/09/03 16:21:34;;;;;;;;;;;;;;;;;;5015354;28;19947;-28
2022/09/03 16:24:00;;;;;;;;;;;;;;;;;;5015400;28;19992;-27
2022/09/03 16:26:26;;;;;;;;;;;;;;;;;;5015999;28;19937;-27
2022/09/03 16:28:52;;;;;;;;;;;;;;;;;;5015643;28;19933;-27
2022/09/03 16:31:20;;;;;;;;;;;;;;;;;;5015685;28;19936;-27
2022/09/03 16:33:46;;;;;;;;;;;;;;;;;;5015867;28;20038;-27
2022/09/03 16:36:11;;;;;;;;;;;;;;;;;;5015339;28;19917;-27
2022/09/03 16:38:37;;;;;;;;;;;;;;;;;;5015292;28;19995;-27